createdAt,value
2019-06-15T00:01:45.341Z,18.20
2019-06-15T00:04:14.023Z,18.10
2019-06-15T00:06:42.499Z,18.10
2019-06-15T00:09:11.297Z,18.10
2019-06-15T00:11:39.894Z,18.20
2019-06-15T00:14:09.111Z,18.30
2019-06-15T00:16:37.724Z,18.30
2019-06-15T00:19:08.597Z,18.30
2019-06-15T00:21:37.132Z,18.20
2019-06-15T00:24:05.677Z,18.20
2019-06-15T00:26:34.505Z,18.20
2019-06-15T00:29:03.873Z,18.20
2019-06-15T00:31:32.345Z,18.20
2019-06-15T00:34:02.225Z,18.20
2019-06-15T00:36:31.048Z,18.20
2019-06-15T00:38:59.897Z,18.20
2019-06-15T00:41:30.734Z,18.20
2019-06-15T00:43:59.479Z,18.20
2019-06-15T00:46:28.146Z,18.20
2019-06-15T00:48:56.677Z,18.20
2019-06-15T00:51:25.137Z,18.30
2019-06-15T00:53:54.988Z,18.30
2019-06-15T00:56:24.781Z,18.30
2019-06-15T00:58:53.608Z,18.30
2019-06-15T01:01:22.134Z,18.20
2019-06-15T01:03:56.321Z,18.20
2019-06-15T01:06:24.876Z,18.20
2019-06-15T01:08:53.720Z,18.20
2019-06-15T01:11:22.290Z,18.20
2019-06-15T01:13:51.084Z,18.20
2019-06-15T01:16:19.931Z,18.20
2019-06-15T01:18:48.827Z,18.20
2019-06-15T01:21:17.581Z,18.30
2019-06-15T01:23:46.141Z,18.20
2019-06-15T01:26:14.718Z,18.20
2019-06-15T01:28:43.518Z,18.10
2019-06-15T01:31:12.157Z,18.20
2019-06-15T01:33:41.069Z,18.20
2019-06-15T01:36:09.906Z,18.20
2019-06-15T01:38:38.474Z,18.20
2019-06-15T01:41:07.060Z,18.40
2019-06-15T01:43:35.788Z,18.40
2019-06-15T01:46:04.256Z,18.60
2019-06-15T01:48:32.891Z,18.70
2019-06-15T01:51:02.964Z,18.70
2019-06-15T01:53:33.518Z,18.50
2019-06-15T01:56:02.402Z,18.50
2019-06-15T01:58:30.854Z,18.50
2019-06-15T02:00:59.597Z,18.50
2019-06-15T02:03:28.211Z,18.50
2019-06-15T02:05:56.882Z,18.60
2019-06-15T02:08:25.599Z,18.50
2019-06-15T02:10:54.106Z,18.50
2019-06-15T02:13:22.662Z,18.50
2019-06-15T02:15:51.130Z,18.40
2019-06-15T02:18:19.708Z,18.40
2019-06-15T02:20:48.186Z,18.40
2019-06-15T02:23:17.004Z,18.60
2019-06-15T02:25:45.925Z,18.50
2019-06-15T02:28:14.735Z,18.50
2019-06-15T02:30:43.461Z,18.50
2019-06-15T02:33:12.289Z,18.60
2019-06-15T02:35:41.296Z,18.60
2019-06-15T02:38:10.053Z,18.60
2019-06-15T02:40:38.534Z,18.60
2019-06-15T02:43:07.088Z,18.50
2019-06-15T02:45:35.609Z,18.50
2019-06-15T02:48:04.335Z,18.50
2019-06-15T02:50:33.171Z,18.50
2019-06-15T02:53:01.703Z,18.50
2019-06-15T02:55:31.080Z,18.60
2019-06-15T02:57:59.816Z,18.60
2019-06-15T03:00:40.097Z,18.60
2019-06-15T03:03:08.853Z,18.50
2019-06-15T03:05:38.082Z,18.40
2019-06-15T03:08:11.731Z,18.40
2019-06-15T03:10:40.524Z,18.30
2019-06-15T03:13:09.239Z,18.20
2019-06-15T03:15:37.781Z,18.20
2019-06-15T03:18:06.226Z,18.20
2019-06-15T03:20:34.694Z,18.20
2019-06-15T03:23:04.269Z,18.20
2019-06-15T03:25:33.054Z,18.20
2019-06-15T03:28:01.583Z,18.20
2019-06-15T03:30:30.073Z,18.00
2019-06-15T03:32:58.765Z,18.10
2019-06-15T03:35:27.624Z,18.10
2019-06-15T03:37:56.473Z,18.00
2019-06-15T03:40:25.258Z,17.90
2019-06-15T03:43:05.302Z,17.80
2019-06-15T03:45:33.766Z,17.80
2019-06-15T03:48:02.580Z,17.70
2019-06-15T03:50:37.441Z,17.70
2019-06-15T03:53:06.254Z,17.70
2019-06-15T03:55:35.056Z,17.70
2019-06-15T03:58:03.806Z,17.80
2019-06-15T04:00:35.615Z,17.80
2019-06-15T04:03:05.544Z,17.70
2019-06-15T04:05:34.179Z,17.60
2019-06-15T04:08:02.915Z,17.60
2019-06-15T04:10:31.856Z,17.50
2019-06-15T04:13:00.446Z,17.50
2019-06-15T04:15:29.630Z,17.40
2019-06-15T04:17:58.094Z,17.40
2019-06-15T04:20:26.703Z,17.40
2019-06-15T04:22:55.222Z,17.40
2019-06-15T04:25:24.056Z,17.40
2019-06-15T04:27:52.621Z,17.30
2019-06-15T04:30:21.142Z,17.20
2019-06-15T04:32:50.223Z,17.20
2019-06-15T04:35:18.807Z,17.10
2019-06-15T04:37:47.508Z,17.10
2019-06-15T04:40:16.608Z,17.00
2019-06-15T04:42:45.446Z,16.90
2019-06-15T04:45:14.136Z,16.90
2019-06-15T04:47:51.371Z,16.80
2019-06-15T04:50:19.831Z,16.80
2019-06-15T04:52:48.562Z,16.80
2019-06-15T04:55:17.046Z,16.80
2019-06-15T04:57:45.527Z,16.70
2019-06-15T05:00:15.736Z,16.70
2019-06-15T05:02:44.604Z,16.70
2019-06-15T05:05:13.543Z,16.70
2019-06-15T05:07:41.995Z,16.60
2019-06-15T05:10:11.590Z,16.60
2019-06-15T05:12:40.457Z,16.60
2019-06-15T05:15:09.924Z,16.60
2019-06-15T05:17:38.719Z,16.50
2019-06-15T05:20:07.699Z,16.50
2019-06-15T05:22:40.956Z,16.50
2019-06-15T05:25:09.640Z,16.40
2019-06-15T05:27:38.097Z,16.40
2019-06-15T05:30:08.537Z,16.40
2019-06-15T05:32:37.405Z,16.40
2019-06-15T05:35:07.453Z,16.40
2019-06-15T05:37:36.179Z,16.30
2019-06-15T05:40:06.019Z,16.40
2019-06-15T05:42:34.561Z,16.40
2019-06-15T05:45:04.043Z,16.40
2019-06-15T05:47:32.806Z,16.30
2019-06-15T05:50:06.144Z,16.40
2019-06-15T05:52:35.066Z,16.40
2019-06-15T05:55:07.352Z,16.40
2019-06-15T05:57:35.984Z,16.30
2019-06-15T06:00:09.837Z,16.30
2019-06-15T06:02:38.685Z,16.20
2019-06-15T06:05:09.244Z,16.20
2019-06-15T06:07:37.962Z,16.10
2019-06-15T06:10:10.734Z,16.00
2019-06-15T06:12:38.388Z,15.90
2019-06-15T06:15:08.846Z,15.90
2019-06-15T06:17:37.408Z,15.90
2019-06-15T06:20:09.351Z,15.90
2019-06-15T06:22:38.261Z,15.90
2019-06-15T06:25:10.168Z,15.80
2019-06-15T06:27:38.695Z,15.80
2019-06-15T06:30:09.620Z,15.80
2019-06-15T06:32:38.259Z,15.80
2019-06-15T06:35:07.741Z,15.70
2019-06-15T06:37:36.562Z,15.70
2019-06-15T06:40:08.203Z,15.70
2019-06-15T06:42:36.671Z,15.70
2019-06-15T06:45:08.237Z,15.70
2019-06-15T06:47:36.784Z,15.70
2019-06-15T06:50:07.493Z,15.60
2019-06-15T06:52:36.307Z,15.50
2019-06-15T06:55:06.208Z,15.50
2019-06-15T06:57:34.735Z,15.60
2019-06-15T07:00:03.949Z,15.70
2019-06-15T07:02:32.443Z,15.80
2019-06-15T07:05:01.384Z,15.90
2019-06-15T07:07:30.022Z,16.10
2019-06-15T07:09:58.868Z,16.20
2019-06-15T07:12:27.688Z,16.30
2019-06-15T07:14:56.226Z,16.50
2019-06-15T07:17:29.540Z,16.60
2019-06-15T07:19:58.037Z,16.80
2019-06-15T07:22:26.556Z,16.90
2019-06-15T07:24:55.023Z,17.10
2019-06-15T07:27:23.712Z,17.10
2019-06-15T07:29:55.520Z,17.20
2019-06-15T07:32:24.993Z,17.30
2019-06-15T07:34:54.699Z,17.40
2019-06-15T07:37:23.405Z,17.40
2019-06-15T07:40:07.463Z,17.30
2019-06-15T07:42:39.102Z,17.30
2019-06-15T07:45:08.353Z,17.30
2019-06-15T07:47:37.054Z,17.30
2019-06-15T07:50:11.153Z,17.30
2019-06-15T07:52:36.969Z,17.50
2019-06-15T07:55:09.310Z,17.70
2019-06-15T07:57:37.774Z,17.80
2019-06-15T08:00:08.452Z,18.00
2019-06-15T08:02:37.251Z,18.20
2019-06-15T08:05:07.318Z,18.60
2019-06-15T08:07:36.106Z,18.90
2019-06-15T08:10:06.882Z,19.20
2019-06-15T08:12:35.594Z,19.40
2019-06-15T08:15:09.015Z,19.40
2019-06-15T08:17:37.632Z,19.30
2019-06-15T08:20:10.276Z,19.20
2019-06-15T08:22:38.821Z,19.10
2019-06-15T08:25:08.728Z,19.10
2019-06-15T08:27:37.544Z,19.20
2019-06-15T08:30:09.784Z,19.30
2019-06-15T08:32:38.337Z,19.40
2019-06-15T08:35:12.991Z,19.50
2019-06-15T08:37:43.259Z,19.50
2019-06-15T08:40:12.086Z,19.60
2019-06-15T08:42:40.936Z,19.70
2019-06-15T08:45:09.755Z,19.80
2019-06-15T08:47:38.477Z,19.80
2019-06-15T08:50:07.262Z,19.80
2019-06-15T08:52:36.001Z,19.80
2019-06-15T08:55:05.921Z,19.80
2019-06-15T08:57:34.730Z,19.80
2019-06-15T09:00:07.313Z,19.90
2019-06-15T09:02:36.090Z,20.00
2019-06-15T09:05:06.316Z,20.20
2019-06-15T09:07:34.874Z,20.30
2019-06-15T09:12:53.475Z,20.30
2019-06-15T09:15:25.262Z,20.30
2019-06-15T09:17:53.771Z,20.30
2019-06-15T09:20:22.574Z,20.40
2019-06-15T09:22:58.723Z,20.50
2019-06-15T09:25:23.103Z,20.50
2019-06-15T09:27:51.608Z,20.50
2019-06-15T09:30:20.407Z,20.60
2019-06-15T09:32:49.237Z,20.70
2019-06-15T09:35:17.847Z,20.80
2019-06-15T09:37:46.593Z,21.00
2019-06-15T09:40:15.622Z,21.30
2019-06-15T09:42:45.843Z,21.30
2019-06-15T09:45:15.419Z,21.30
2019-06-15T09:47:44.300Z,21.30
2019-06-15T09:50:13.021Z,21.40
2019-06-15T09:52:41.808Z,21.50
2019-06-15T09:55:12.152Z,21.60
2019-06-15T09:57:40.635Z,21.50
2019-06-15T10:00:10.623Z,21.60
2019-06-15T10:02:39.453Z,21.80
2019-06-15T10:05:08.481Z,21.90
2019-06-15T10:07:37.238Z,22.10
2019-06-15T10:10:07.114Z,22.10
2019-06-15T10:12:35.767Z,22.30
2019-06-15T10:15:06.828Z,22.30
2019-06-15T10:17:35.699Z,22.40
2019-06-15T10:20:06.818Z,22.50
2019-06-15T10:22:35.437Z,22.80
2019-06-15T10:25:05.732Z,23.10
2019-06-15T10:27:58.432Z,23.10
2019-06-15T10:30:48.829Z,23.10
2019-06-15T10:33:17.416Z,23.10
2019-06-15T10:35:50.352Z,23.20
2019-06-15T10:38:18.869Z,23.10
2019-06-15T10:40:48.718Z,23.00
2019-06-15T10:43:17.471Z,22.80
2019-06-15T10:45:46.290Z,22.80
2019-06-15T10:48:16.722Z,22.70
2019-06-15T10:50:45.547Z,22.50
2019-06-15T10:53:14.598Z,22.40
2019-06-15T10:55:43.093Z,22.30
2019-06-15T10:58:12.184Z,22.20
2019-06-15T11:00:41.960Z,22.10
2019-06-15T11:03:11.028Z,22.10
2019-06-15T11:05:39.639Z,22.00
2019-06-15T11:08:09.024Z,21.90
2019-06-15T11:10:53.673Z,21.80
2019-06-15T11:13:22.911Z,21.80
2019-06-15T11:15:51.705Z,21.50
2019-06-15T11:18:20.376Z,21.30
2019-06-15T11:20:49.211Z,21.20
2019-06-15T11:23:18.720Z,21.00
2019-06-15T11:25:48.035Z,20.90
2019-06-15T11:28:16.918Z,20.90
2019-06-15T11:30:46.208Z,20.80
2019-06-15T11:33:14.987Z,20.70
2019-06-15T11:35:44.032Z,20.60
2019-06-15T11:38:12.588Z,20.50
2019-06-15T11:40:41.330Z,20.40
2019-06-15T11:43:10.711Z,20.30
2019-06-15T11:45:39.345Z,20.20
2019-06-15T11:48:08.071Z,20.10
2019-06-15T11:50:37.214Z,20.10
2019-06-15T11:53:06.013Z,20.20
2019-06-15T11:55:39.556Z,20.30
2019-06-15T11:58:05.154Z,20.30
2019-06-15T12:00:46.970Z,20.40
2019-06-15T12:03:17.957Z,20.50
2019-06-15T12:05:46.975Z,20.50
2019-06-15T12:08:18.380Z,20.50
2019-06-15T12:10:47.082Z,20.50
2019-06-15T12:13:15.808Z,20.40
2019-06-15T12:15:44.418Z,20.40
2019-06-15T12:18:13.262Z,20.50
2019-06-15T12:20:42.354Z,20.50
2019-06-15T12:23:11.033Z,20.60
2019-06-15T12:25:40.519Z,20.70
2019-06-15T12:28:09.326Z,20.60
2019-06-15T12:30:46.738Z,20.60
2019-06-15T12:33:09.784Z,20.60
2019-06-15T12:35:38.306Z,20.50
2019-06-15T12:38:06.869Z,20.40
2019-06-15T12:40:35.433Z,20.40
2019-06-15T12:43:04.325Z,20.60
2019-06-15T12:45:32.938Z,21.00
2019-06-15T12:48:01.569Z,21.50
2019-06-15T12:50:30.133Z,21.90
2019-06-15T12:52:58.679Z,22.20
2019-06-15T12:55:27.266Z,22.30
2019-06-15T12:57:55.770Z,22.40
2019-06-15T13:00:27.405Z,22.40
2019-06-15T13:02:56.201Z,22.70
2019-06-15T13:05:25.376Z,22.90
2019-06-15T13:07:54.212Z,22.80
2019-06-15T13:10:22.666Z,22.60
2019-06-15T13:12:51.326Z,22.50
2019-06-15T13:15:21.526Z,22.50
2019-06-15T13:17:50.426Z,22.60
2019-06-15T13:20:20.282Z,22.50
2019-06-15T13:22:48.759Z,22.80
2019-06-15T13:25:17.583Z,23.00
2019-06-15T13:27:46.402Z,23.10
2019-06-15T13:30:20.059Z,23.20
2019-06-15T13:32:57.454Z,23.20
2019-06-15T13:35:26.013Z,23.00
2019-06-15T13:37:54.852Z,22.90
2019-06-15T13:40:23.438Z,22.80
2019-06-15T13:42:52.102Z,23.00
2019-06-15T13:45:21.161Z,23.20
2019-06-15T13:47:51.513Z,23.30
2019-06-15T13:50:20.265Z,23.40
2019-06-15T13:52:48.809Z,23.40
2019-06-15T13:55:17.427Z,23.50
2019-06-15T13:57:46.305Z,23.50
2019-06-15T14:00:15.679Z,23.40
2019-06-15T14:02:50.265Z,23.50
2019-06-15T14:05:19.159Z,23.70
2019-06-15T14:07:54.561Z,23.90
2019-06-15T14:10:27.850Z,23.90
2019-06-15T14:12:58.404Z,24.00
2019-06-15T14:15:28.434Z,24.10
2019-06-15T14:17:58.427Z,24.20
2019-06-15T14:21:12.043Z,24.20
2019-06-15T14:23:56.421Z,24.30
2019-06-15T14:26:27.674Z,24.10
2019-06-15T14:28:56.544Z,24.10
2019-06-15T14:31:46.649Z,24.20
2019-06-15T14:36:55.968Z,24.20
2019-06-15T14:39:25.585Z,24.20
2019-06-15T14:41:55.949Z,24.30
2019-06-15T14:44:25.491Z,24.30
2019-06-15T14:47:04.608Z,24.60
2019-06-15T14:49:33.438Z,24.70
2019-06-15T14:52:02.278Z,24.80
2019-06-15T14:54:46.059Z,24.90
2019-06-15T14:57:01.026Z,25.10
2019-06-15T14:59:31.200Z,25.20
2019-06-15T15:02:10.929Z,25.30
2019-06-15T15:04:36.786Z,25.30
2019-06-15T15:07:05.607Z,25.20
2019-06-15T15:09:42.261Z,25.40
2019-06-15T15:12:10.840Z,25.30
2019-06-15T15:14:39.364Z,25.20
2019-06-15T15:17:10.904Z,25.00
2019-06-15T15:19:39.494Z,25.10
2019-06-15T15:22:07.950Z,25.00
2019-06-15T15:24:41.488Z,25.00
2019-06-15T15:27:11.876Z,24.90
2019-06-15T15:32:31.614Z,24.70
2019-06-15T15:34:59.220Z,24.60
2019-06-15T15:37:29.232Z,24.60
2019-06-15T15:39:58.239Z,24.60
2019-06-15T15:42:27.090Z,24.40
2019-06-15T15:44:57.411Z,24.30
2019-06-15T15:47:27.258Z,24.10
2019-06-15T15:50:01.439Z,24.00
2019-06-15T15:52:33.084Z,23.80
2019-06-15T15:55:01.892Z,23.80
2019-06-15T15:57:30.719Z,23.80
2019-06-15T15:59:59.201Z,23.70
2019-06-15T16:02:44.267Z,23.60
2019-06-15T16:04:58.199Z,23.70
2019-06-15T16:07:27.844Z,24.00
2019-06-15T16:09:56.553Z,24.10
2019-06-15T16:12:26.013Z,24.40
2019-06-15T16:14:56.490Z,24.60
2019-06-15T16:17:26.781Z,24.50
2019-06-15T16:19:56.565Z,24.60
2019-06-15T16:22:26.348Z,24.40
2019-06-15T16:25:06.939Z,24.50
2019-06-15T16:27:37.071Z,24.80
2019-06-15T16:30:09.081Z,25.10
2019-06-15T16:32:37.955Z,25.50
2019-06-15T16:35:07.645Z,25.60
2019-06-15T16:37:36.113Z,25.30
2019-06-15T16:40:08.546Z,25.30
2019-06-15T16:42:43.150Z,25.20
2019-06-15T16:45:11.918Z,25.10
2019-06-15T16:47:42.126Z,25.00
2019-06-15T16:50:22.546Z,25.10
2019-06-15T16:52:51.049Z,25.30
2019-06-15T16:55:28.860Z,25.60
2019-06-15T16:57:57.326Z,25.80
2019-06-15T17:00:32.781Z,26.00
2019-06-15T17:03:16.356Z,26.00
2019-06-15T17:05:32.073Z,26.10
2019-06-15T17:08:06.920Z,26.10
2019-06-15T17:10:42.378Z,26.10
2019-06-15T17:13:10.968Z,25.80
2019-06-15T17:15:39.793Z,25.80
2019-06-15T17:18:14.006Z,25.90
2019-06-15T17:20:56.474Z,25.90
2019-06-15T17:23:34.205Z,25.90
2019-06-15T17:26:03.070Z,25.90
2019-06-15T17:28:31.683Z,25.80
2019-06-15T17:31:02.192Z,25.70
2019-06-15T17:33:37.387Z,25.40
2019-06-15T17:36:03.223Z,25.00
2019-06-15T17:38:31.382Z,24.50
2019-06-15T17:41:00.210Z,23.80
2019-06-15T17:43:33.154Z,23.50
2019-06-15T17:46:01.712Z,23.20
2019-06-15T17:48:30.502Z,22.90
2019-06-15T17:51:06.604Z,22.50
2019-06-15T17:53:36.766Z,22.30
2019-06-15T17:56:16.456Z,22.00
2019-06-15T17:58:46.323Z,21.90
2019-06-15T18:01:17.211Z,21.70
2019-06-15T18:03:53.795Z,21.40
2019-06-15T18:06:17.376Z,21.30
2019-06-15T18:08:58.575Z,21.10
2019-06-15T18:11:27.122Z,21.10
2019-06-15T18:13:57.107Z,21.00
2019-06-15T18:16:30.558Z,20.90
2019-06-15T18:19:11.586Z,20.90
2019-06-15T18:21:52.426Z,20.90
2019-06-15T18:24:21.028Z,20.80
2019-06-15T18:27:01.704Z,20.80
2019-06-15T18:29:33.383Z,20.70
2019-06-15T18:32:07.822Z,20.90
2019-06-15T18:34:36.826Z,20.90
2019-06-15T18:37:07.708Z,20.90
2019-06-15T18:39:36.971Z,20.90
2019-06-15T18:42:07.708Z,21.00
2019-06-15T18:44:36.622Z,21.30
2019-06-15T18:47:07.169Z,21.40
2019-06-15T18:49:37.979Z,21.40
2019-06-15T18:52:11.103Z,21.40
2019-06-15T18:54:39.602Z,21.30
2019-06-15T18:57:08.084Z,21.30
2019-06-15T18:59:47.408Z,21.40
2019-06-15T19:02:16.151Z,21.40
2019-06-15T19:04:49.519Z,21.40
2019-06-15T19:07:19.927Z,21.50
2019-06-15T19:09:49.979Z,21.60
2019-06-15T19:12:20.782Z,21.50
2019-06-15T19:14:49.035Z,21.50
2019-06-15T19:17:17.679Z,21.50
2019-06-15T19:19:46.779Z,21.60
2019-06-15T19:22:27.560Z,21.60
2019-06-15T19:25:01.893Z,21.50
2019-06-15T19:27:32.003Z,21.40
2019-06-15T19:30:00.806Z,21.40
2019-06-15T19:32:32.770Z,21.40
2019-06-15T19:35:01.641Z,21.20
2019-06-15T19:37:36.947Z,21.00
2019-06-15T19:40:11.191Z,20.90
2019-06-15T19:42:39.659Z,20.80
2019-06-15T19:45:26.725Z,20.70
2019-06-15T19:48:00.692Z,20.60
2019-06-15T19:50:29.555Z,20.50
2019-06-15T19:53:02.578Z,20.40
2019-06-15T19:55:31.214Z,20.40
2019-06-15T19:58:00.351Z,20.30
2019-06-15T20:00:46.544Z,20.30
2019-06-15T20:03:17.760Z,20.20
2019-06-15T20:05:46.355Z,20.10
2019-06-15T20:08:17.408Z,20.10
2019-06-15T20:10:47.299Z,20.00
2019-06-15T20:13:21.623Z,20.00
2019-06-15T20:15:50.277Z,20.00
2019-06-15T20:18:18.818Z,20.00
2019-06-15T20:20:50.381Z,19.90
2019-06-15T20:23:23.539Z,19.80
2019-06-15T20:25:52.407Z,19.80
2019-06-15T20:28:21.240Z,19.70
2019-06-15T20:30:49.751Z,19.60
2019-06-15T20:33:18.287Z,19.60
2019-06-15T20:35:47.425Z,19.50
2019-06-15T20:38:18.390Z,19.40
2019-06-15T20:40:52.623Z,19.30
2019-06-15T20:43:27.347Z,19.20
2019-06-15T20:45:56.277Z,19.00
2019-06-15T20:48:31.170Z,19.00
2019-06-15T20:51:00.131Z,18.90
2019-06-15T20:53:41.772Z,18.90
2019-06-15T20:56:10.606Z,18.90
2019-06-15T20:58:39.372Z,18.80
2019-06-15T21:01:10.761Z,18.80
2019-06-15T21:03:47.004Z,18.80
2019-06-15T21:06:21.857Z,18.80
2019-06-15T21:08:50.959Z,18.70
2019-06-15T21:11:19.527Z,18.60
2019-06-15T21:13:56.681Z,18.60
2019-06-15T21:16:26.200Z,18.60
2019-06-15T21:18:57.161Z,18.50
2019-06-15T21:21:27.774Z,18.40
2019-06-15T21:23:57.019Z,18.30
2019-06-15T21:26:26.995Z,18.30
2019-06-15T21:28:56.578Z,18.30
2019-06-15T21:31:26.226Z,18.30
2019-06-15T21:33:56.147Z,18.30
2019-06-15T21:36:26.102Z,18.30
2019-06-15T21:38:59.579Z,18.20
2019-06-15T21:41:29.803Z,18.10
2019-06-15T21:44:06.314Z,18.10
2019-06-15T21:46:36.136Z,18.20
2019-06-15T21:49:07.878Z,18.20
2019-06-15T21:51:36.769Z,18.10
2019-06-15T21:54:06.897Z,17.80
2019-06-15T21:56:37.549Z,17.50
2019-06-15T21:59:07.412Z,17.30
2019-06-15T22:01:37.638Z,17.10
2019-06-15T22:04:10.625Z,17.10
2019-06-15T22:06:39.416Z,17.10
2019-06-15T22:09:20.997Z,17.00
2019-06-15T22:11:48.669Z,17.00
2019-06-15T22:14:17.328Z,17.20
2019-06-15T22:16:46.178Z,17.30
2019-06-15T22:19:16.893Z,17.30
2019-06-15T22:21:47.531Z,17.30
2019-06-15T22:24:16.286Z,17.30
2019-06-15T22:26:46.778Z,17.10
2019-06-15T22:29:16.802Z,17.00
2019-06-15T22:31:47.012Z,16.80
2019-06-15T22:34:16.223Z,16.70
2019-06-15T22:36:48.109Z,16.60
2019-06-15T22:39:17.265Z,16.60
2019-06-15T22:41:47.787Z,16.70
2019-06-15T22:44:17.004Z,16.70
2019-06-15T22:46:46.445Z,16.70
2019-06-15T22:49:16.135Z,16.70
2019-06-15T22:51:45.900Z,16.70
2019-06-15T22:54:16.733Z,16.80
2019-06-15T22:56:46.617Z,16.70
2019-06-15T22:59:16.910Z,16.70
2019-06-15T23:01:46.102Z,16.70
2019-06-15T23:04:17.080Z,16.80
2019-06-15T23:06:51.304Z,16.80
2019-06-15T23:09:19.832Z,16.80
2019-06-15T23:11:48.354Z,16.80
2019-06-15T23:14:17.299Z,16.80
2019-06-15T23:16:47.586Z,16.80
2019-06-15T23:19:17.233Z,16.80
2019-06-15T23:21:46.524Z,16.70
2019-06-15T23:24:16.576Z,16.70
2019-06-15T23:26:47.885Z,16.60
2019-06-15T23:29:16.563Z,16.50
2019-06-15T23:31:46.186Z,16.50
2019-06-15T23:34:16.259Z,16.50
2019-06-15T23:36:56.984Z,16.40
2019-06-15T23:39:22.986Z,16.30
2019-06-15T23:41:51.536Z,16.20
2019-06-15T23:44:20.118Z,16.30
2019-06-15T23:46:49.960Z,16.20
2019-06-15T23:49:18.890Z,16.10
2019-06-15T23:51:49.441Z,16.20
2019-06-15T23:54:19.319Z,16.10
2019-06-15T23:56:49.752Z,16.20
2019-06-15T23:59:18.311Z,16.20
